Time;durP1;ratioP1;P1;durP2;ratioP2;P2;SDS_P1;SDS_P2;PMS_P1;PMS_P2;Temp;Humidity;BMP_temperature;BMP_pressure;BME280_temperature;BME280_humidity;BME280_pressure;Samples;Min_cycle;Max_cycle;Signal;HPM_P1;HPM_P2
2022/03/30 00:00:39;;;;;;;29.48;17.60;;;;;;;9.43;75.86;100682.50;5279248;28;20032;-70
2022/03/30 00:03:11;;;;;;;30.25;18.00;;;;;;;9.37;76.37;100687.41;5278318;28;20024;-69
2022/03/30 00:05:42;;;;;;;31.52;17.15;;;;;;;9.30;76.54;100684.47;5277431;28;20028;-70
2022/03/30 00:08:14;;;;;;;25.83;17.92;;;;;;;9.23;76.72;100689.34;5276511;28;20028;-70
2022/03/30 00:10:45;;;;;;;27.08;18.55;;;;;;;9.31;76.61;100687.91;5278642;28;20020;-70
2022/03/30 00:13:17;;;;;;;29.25;17.40;;;;;;;9.27;76.58;100682.91;5277971;28;20037;-70
2022/03/30 00:15:49;;;;;;;28.73;16.75;;;;;;;9.34;76.97;100687.66;5276888;28;20101;-70
2022/03/30 00:18:21;;;;;;;27.95;16.95;;;;;;;9.32;77.39;100674.72;5278271;28;20028;-69
2022/03/30 00:20:52;;;;;;;29.00;17.95;;;;;;;9.34;77.18;100685.88;5277850;28;20127;-70
2022/03/30 00:23:23;;;;;;;28.40;17.23;;;;;;;9.38;77.05;100687.28;5276672;28;20486;-70
2022/03/30 00:25:54;;;;;;;24.40;16.90;;;;;;;9.36;77.07;100689.19;5277782;28;20032;-70
2022/03/30 00:28:27;;;;;;;32.00;18.63;;;;;;;9.36;77.03;100686.59;5276705;28;20025;-70
2022/03/30 00:30:58;;;;;;;28.58;17.63;;;;;;;9.34;76.94;100682.44;5277600;28;20121;-70
2022/03/30 00:33:30;;;;;;;28.85;17.77;;;;;;;9.29;77.68;100685.44;5277058;28;20452;-70
2022/03/30 00:36:01;;;;;;;26.25;17.38;;;;;;;9.27;78.36;100679.47;5277491;28;20414;-71
2022/03/30 00:38:32;;;;;;;28.42;18.10;;;;;;;9.25;77.59;100673.56;5277910;28;20070;-70
2022/03/30 00:41:04;;;;;;;28.35;18.55;;;;;;;9.23;78.25;100671.06;5277202;28;20027;-70
2022/03/30 00:43:35;;;;;;;30.63;18.17;;;;;;;9.16;78.32;100662.06;5277402;28;20214;-70
2022/03/30 00:46:10;;;;;;;33.70;17.35;;;;;;;9.08;78.42;100661.03;5276750;28;20130;-70
2022/03/30 00:48:42;;;;;;;28.00;18.15;;;;;;;9.00;79.03;100664.25;5276062;28;20033;-70
2022/03/30 00:51:14;;;;;;;26.77;16.90;;;;;;;8.95;79.43;100667.25;5277783;28;20111;-69
2022/03/30 00:53:45;;;;;;;31.42;18.60;;;;;;;8.95;79.19;100669.88;5277087;28;20040;-69
2022/03/30 00:56:16;;;;;;;31.27;19.10;;;;;;;8.99;79.52;100676.50;5276575;28;20182;-69
2022/03/30 00:58:49;;;;;;;30.30;19.35;;;;;;;8.92;79.63;100677.13;5275918;28;20043;-70
2022/03/30 01:01:21;;;;;;;26.60;18.13;;;;;;;8.91;79.96;100675.47;5277692;28;20032;-70
2022/03/30 01:03:52;;;;;;;30.90;17.65;;;;;;;8.91;80.25;100676.28;5277312;28;20028;-69
2022/03/30 01:06:24;;;;;;;27.25;17.63;;;;;;;8.81;79.83;100666.69;5274457;28;20278;-69
2022/03/30 01:08:55;;;;;;;26.35;16.67;;;;;;;8.77;79.62;100660.91;5276058;28;20032;-69
2022/03/30 01:11:28;;;;;;;28.27;17.35;;;;;;;8.71;80.16;100653.53;5277494;28;20092;-70
2022/03/30 01:14:00;;;;;;;31.90;18.17;;;;;;;8.65;79.72;100652.25;5276656;28;20571;-70
2022/03/30 01:16:31;;;;;;;29.85;17.77;;;;;;;8.64;80.33;100649.78;5275791;28;20036;-69
2022/03/30 01:19:07;;;;;;;26.35;18.08;;;;;;;8.59;80.82;100647.50;5277060;28;20111;-70
2022/03/30 01:21:40;;;;;;;28.17;17.77;;;;;;;8.55;81.26;100646.09;5277021;28;20382;-69
2022/03/30 01:24:13;;;;;;;24.48;16.88;;;;;;;8.55;80.81;100645.28;5276178;28;20074;-70
2022/03/30 01:26:44;;;;;;;26.20;16.88;;;;;;;8.59;80.77;100644.06;5276973;28;20074;-70
2022/03/30 01:35:01;;;;;;;28.50;17.30;;;;;;;8.43;80.91;100640.06;5274057;28;20482;-70
2022/03/30 01:37:33;;;;;;;30.48;18.83;;;;;;;8.32;80.78;100637.44;5276955;28;20593;-70
2022/03/30 01:40:06;;;;;;;27.27;17.17;;;;;;;8.32;80.62;100632.22;5275855;28;20020;-70
2022/03/30 01:42:38;;;;;;;30.75;17.50;;;;;;;8.33;81.01;100633.88;5275567;28;20028;-70
2022/03/30 01:45:11;;;;;;;31.63;17.77;;;;;;;8.30;80.59;100623.69;5276112;28;20024;-69
2022/03/30 01:47:54;;;;;;;36.03;18.88;;;;;;;8.39;81.59;100638.66;5276858;28;20112;-70
2022/03/30 01:50:28;;;;;;;30.73;17.77;;;;;;;8.24;81.50;100637.22;5275274;28;20070;-70
2022/03/30 01:53:01;;;;;;;34.08;17.50;;;;;;;8.22;81.76;100628.66;5274402;28;20021;-70
2022/03/30 01:55:32;;;;;;;27.58;17.63;;;;;;;8.20;82.56;100633.19;5276699;28;20425;-70
2022/03/30 01:58:05;;;;;;;29.42;18.13;;;;;;;8.17;82.68;100626.44;5276379;28;20032;-70
2022/03/30 02:00:37;;;;;;;24.30;17.73;;;;;;;8.17;83.38;100623.00;5273824;28;20025;-70
2022/03/30 02:03:08;;;;;;;27.83;16.95;;;;;;;8.11;83.54;100624.31;5275377;28;20035;-71
2022/03/30 02:05:40;;;;;;;27.20;17.33;;;;;;;8.07;83.11;100615.06;5275955;28;20024;-70
2022/03/30 02:08:11;;;;;;;31.05;18.17;;;;;;;7.95;83.89;100618.59;5276409;28;20054;-70
2022/03/30 02:10:42;;;;;;;30.92;18.45;;;;;;;7.97;84.60;100616.72;5275040;28;20465;-70
2022/03/30 02:13:14;;;;;;;27.85;17.95;;;;;;;7.92;83.65;100611.03;5274735;28;20037;-70
2022/03/30 02:15:45;;;;;;;29.98;18.30;;;;;;;7.94;84.16;100609.97;5276052;28;20030;-70
2022/03/30 02:18:16;;;;;;;33.22;19.15;;;;;;;7.88;83.94;100607.84;5275495;28;20052;-70
2022/03/30 02:20:48;;;;;;;31.27;19.13;;;;;;;7.85;84.09;100609.84;5276197;28;20040;-70
2022/03/30 02:23:19;;;;;;;27.98;18.40;;;;;;;7.68;84.94;100601.53;5273923;28;20489;-70
2022/03/30 02:25:50;;;;;;;32.03;18.70;;;;;;;7.72;85.22;100602.94;5276886;28;20029;-70
2022/03/30 02:28:22;;;;;;;33.20;17.90;;;;;;;7.66;85.17;100598.22;5276128;28;20529;-70
2022/03/30 02:30:53;;;;;;;26.35;18.10;;;;;;;7.60;85.26;100593.47;5277052;28;20191;-70
2022/03/30 02:33:25;;;;;;;29.20;17.95;;;;;;;7.60;86.36;100593.47;5273173;28;20097;-70
2022/03/30 02:35:57;;;;;;;29.40;18.17;;;;;;;7.58;86.09;100584.94;5277023;28;20059;-70
2022/03/30 02:38:28;;;;;;;34.60;19.05;;;;;;;7.55;85.93;100578.19;5276093;28;20478;-70
2022/03/30 02:41:01;;;;;;;31.88;19.45;;;;;;;7.50;86.05;100577.72;5275668;28;20029;-70
2022/03/30 02:43:33;;;;;;;28.70;18.52;;;;;;;7.47;86.90;100564.91;5273218;28;20020;-70
2022/03/30 02:46:04;;;;;;;25.80;17.57;;;;;;;7.56;85.96;100565.97;5275841;28;20540;-70
2022/03/30 02:48:37;;;;;;;29.33;17.63;;;;;;;7.50;86.03;100561.22;5272747;28;20024;-70
2022/03/30 02:51:09;;;;;;;34.38;18.35;;;;;;;7.52;85.89;100564.53;5274560;28;20074;-70
2022/03/30 02:53:40;;;;;;;27.50;17.02;;;;;;;7.49;86.54;100565.59;5273978;28;20451;-70
2022/03/30 02:56:11;;;;;;;32.20;18.52;;;;;;;7.53;86.31;100559.22;5273951;28;20066;-70
2022/03/30 02:58:43;;;;;;;32.67;19.65;;;;;;;7.42;85.88;100559.19;5274576;28;20079;-70
2022/03/30 03:01:14;;;;;;;29.88;17.35;;;;;;;7.46;86.33;100563.25;5275562;28;20032;-70
2022/03/30 03:03:46;;;;;;;30.17;18.10;;;;;;;7.38;85.21;100564.75;5273955;28;20103;-70
2022/03/30 03:06:17;;;;;;;29.00;18.50;;;;;;;7.36;86.28;100558.84;5274848;28;20043;-70
2022/03/30 03:08:49;;;;;;;27.38;18.25;;;;;;;7.39;86.22;100561.22;5273971;28;20029;-70
2022/03/30 03:11:21;;;;;;;32.50;17.95;;;;;;;7.33;87.37;100552.09;5275247;28;20546;-70
2022/03/30 03:13:52;;;;;;;26.48;17.52;;;;;;;7.31;86.24;100553.97;5274404;28;20029;-70
2022/03/30 03:16:23;;;;;;;25.63;17.75;;;;;;;7.25;86.32;100562.25;5275678;28;20024;-71
2022/03/30 03:18:54;;;;;;;29.17;18.20;;;;;;;7.25;86.61;100554.44;5274327;28;20048;-70
2022/03/30 03:21:26;;;;;;;30.23;17.95;;;;;;;7.29;86.87;100546.28;5274908;28;20032;-70
2022/03/30 03:23:57;;;;;;;29.65;18.42;;;;;;;7.19;87.49;100539.25;5273587;28;20036;-70
2022/03/30 03:26:29;;;;;;;27.08;17.52;;;;;;;7.19;87.15;100541.88;5274479;28;20032;-70
2022/03/30 03:29:02;;;;;;;33.20;18.33;;;;;;;7.18;87.17;100542.81;5274771;28;20028;-70
2022/03/30 03:31:33;;;;;;;26.60;17.83;;;;;;;7.17;87.66;100536.78;5273679;28;20385;-70
2022/03/30 03:34:04;;;;;;;36.47;18.35;;;;;;;7.15;87.49;100541.28;5271648;28;20032;-70
2022/03/30 03:36:35;;;;;;;31.85;18.10;;;;;;;7.01;88.17;100520.66;5275466;28;20028;-70
2022/03/30 03:39:07;;;;;;;34.85;19.33;;;;;;;7.08;88.51;100534.84;5274810;28;20021;-71
2022/03/30 03:41:38;;;;;;;29.88;16.90;;;;;;;6.96;88.51;100538.38;5274753;28;20082;-71
2022/03/30 03:44:09;;;;;;;31.00;18.30;;;;;;;6.95;89.14;100550.59;5272837;28;20032;-70
2022/03/30 03:46:41;;;;;;;33.65;19.50;;;;;;;6.88;89.02;100541.56;5275249;28;20066;-70
2022/03/30 03:49:12;;;;;;;27.95;17.92;;;;;;;6.85;89.30;100533.16;5275233;28;20035;-72
2022/03/30 03:51:43;;;;;;;30.50;17.60;;;;;;;6.90;89.98;100538.88;5274374;28;20449;-70
2022/03/30 03:54:14;;;;;;;28.77;19.52;;;;;;;6.80;89.89;100536.91;5272324;28;20028;-70
2022/03/30 03:56:47;;;;;;;31.33;17.77;;;;;;;6.78;89.40;100541.44;5275319;28;20037;-70
2022/03/30 03:59:19;;;;;;;32.22;18.55;;;;;;;6.74;89.75;100534.78;5274992;28;20028;-70
2022/03/30 04:01:50;;;;;;;30.95;19.00;;;;;;;6.75;89.30;100533.00;5272804;28;20020;-70
2022/03/30 04:04:21;;;;;;;34.35;18.50;;;;;;;6.70;89.38;100535.09;5272867;28;20456;-70
2022/03/30 04:06:52;;;;;;;34.78;18.30;;;;;;;6.69;89.42;100530.84;5272574;28;20052;-70
2022/03/30 04:09:24;;;;;;;31.13;18.15;;;;;;;6.58;89.83;100522.03;5275290;28;20036;-71
2022/03/30 04:11:55;;;;;;;30.08;18.23;;;;;;;6.57;90.30;100523.00;5274909;28;20184;-70
2022/03/30 04:14:26;;;;;;;30.77;19.60;;;;;;;6.57;90.08;100520.38;5273193;28;20064;-70
2022/03/30 04:16:58;;;;;;;31.08;18.88;;;;;;;6.55;90.53;100522.28;5273660;28;20117;-70
2022/03/30 04:19:30;;;;;;;32.88;18.90;;;;;;;6.55;90.44;100518.84;5274713;28;20461;-70
2022/03/30 04:22:01;;;;;;;28.77;18.48;;;;;;;6.50;90.10;100518.34;5274761;28;20425;-73
2022/03/30 04:24:32;;;;;;;30.58;19.17;;;;;;;6.53;92.07;100520.72;5270756;28;20105;-71
2022/03/30 04:27:04;;;;;;;34.22;18.00;;;;;;;6.46;90.76;100517.75;5274205;28;20133;-70
2022/03/30 04:29:35;;;;;;;29.85;19.27;;;;;;;6.30;91.36;100510.22;5274062;28;20028;-70
2022/03/30 04:32:07;;;;;;;32.83;18.35;;;;;;;6.40;91.34;100517.34;5272319;28;20032;-70
2022/03/30 04:34:38;;;;;;;28.98;17.95;;;;;;;6.34;91.78;100518.63;5275222;28;20031;-71
2022/03/30 04:37:09;;;;;;;36.10;19.05;;;;;;;6.25;91.91;100521.88;5278240;28;20020;-70
2022/03/30 04:39:41;;;;;;;33.38;18.55;;;;;;;6.21;92.16;100516.09;5277903;28;20028;-70
2022/03/30 04:42:13;;;;;;;31.38;18.52;;;;;;;6.17;93.31;100519.84;5277150;28;20031;-72
2022/03/30 04:44:45;;;;;;;29.10;18.30;;;;;;;6.16;92.08;100525.97;5275798;28;20084;-70
2022/03/30 04:47:16;;;;;;;28.98;17.73;;;;;;;6.06;93.44;100525.81;5278283;28;20596;-70
2022/03/30 04:49:47;;;;;;;34.05;19.15;;;;;;;5.97;94.31;100523.84;5277602;28;20555;-71
2022/03/30 04:52:19;;;;;;;36.25;19.67;;;;;;;5.94;94.18;100531.03;5276529;28;20105;-70
2022/03/30 04:54:50;;;;;;;36.35;19.80;;;;;;;5.91;95.63;100526.03;5274160;28;20039;-70
2022/03/30 04:57:21;;;;;;;35.15;19.92;;;;;;;5.88;94.55;100529.69;5278399;28;20025;-70
2022/03/30 04:59:52;;;;;;;33.25;19.85;;;;;;;5.86;95.73;100527.19;5277446;28;20533;-71
2022/03/30 05:02:26;;;;;;;35.55;20.13;;;;;;;5.78;95.85;100536.47;5277325;28;20027;-71
2022/03/30 05:04:57;;;;;;;31.60;18.73;;;;;;;5.83;96.93;100526.56;5276395;28;20348;-72
2022/03/30 05:07:29;;;;;;;36.40;20.25;;;;;;;5.85;96.55;100527.28;5277769;28;20392;-70
2022/03/30 05:10:00;;;;;;;30.08;18.52;;;;;;;5.83;96.79;100532.63;5276619;28;20020;-71
2022/03/30 05:12:32;;;;;;;33.47;19.52;;;;;;;5.85;97.06;100522.09;5277619;28;20506;-70
2022/03/30 05:15:04;;;;;;;32.53;19.13;;;;;;;5.73;96.88;100523.78;5276037;28;20048;-70
2022/03/30 05:17:38;;;;;;;34.45;20.67;;;;;;;5.80;98.13;100521.59;5277149;28;20024;-70
2022/03/30 05:20:10;;;;;;;38.97;20.05;;;;;;;5.64;97.82;100514.00;5276768;28;20166;-70
2022/03/30 05:22:43;;;;;;;32.25;19.80;;;;;;;5.66;98.38;100519.94;5277278;28;20370;-70
2022/03/30 05:25:19;;;;;;;31.98;19.83;;;;;;;5.67;98.62;100516.41;5275829;28;20036;-70
2022/03/30 05:27:50;;;;;;;36.20;20.55;;;;;;;5.64;99.93;100516.63;5276695;28;20470;-70
2022/03/30 05:30:22;;;;;;;31.48;19.48;;;;;;;5.56;98.78;100504.16;5276442;28;20106;-69
2022/03/30 05:32:53;;;;;;;36.08;20.23;;;;;;;5.61;99.66;100507.28;5276915;28;20026;-71
2022/03/30 05:35:24;;;;;;;34.35;20.33;;;;;;;5.63;99.30;100511.53;5276029;28;20070;-69
2022/03/30 05:37:56;;;;;;;31.42;20.10;;;;;;;5.57;99.84;100518.00;5275166;28;20020;-69
2022/03/30 05:40:27;;;;;;;36.13;20.58;;;;;;;5.59;100.00;100514.34;5275998;28;20066;-71
2022/03/30 05:42:58;;;;;;;38.35;20.77;;;;;;;5.62;99.09;100508.09;5276996;28;20482;-69
2022/03/30 05:45:30;;;;;;;36.13;19.77;;;;;;;5.71;98.55;100511.81;5275117;28;20032;-70
2022/03/30 05:48:01;;;;;;;34.00;20.00;;;;;;;5.64;98.74;100508.00;5276316;28;20067;-69
2022/03/30 05:50:32;;;;;;;38.75;19.63;;;;;;;5.66;98.65;100506.97;5275305;28;20043;-69
2022/03/30 05:53:04;;;;;;;37.13;20.75;;;;;;;5.56;98.66;100488.56;5276232;28;20101;-69
2022/03/30 05:55:35;;;;;;;37.63;20.40;;;;;;;5.63;99.09;100507.16;5275737;28;20115;-70
2022/03/30 05:58:06;;;;;;;35.40;20.45;;;;;;;5.69;99.59;100511.13;5275824;28;20161;-70
2022/03/30 06:00:38;;;;;;;38.28;20.45;;;;;;;5.64;99.54;100508.81;5274782;28;20081;-70
2022/03/30 06:03:12;;;;;;;34.15;20.45;;;;;;;5.63;99.38;100503.75;5275941;28;20496;-70
2022/03/30 06:05:43;;;;;;;34.17;20.08;;;;;;;5.62;99.48;100510.72;5276142;28;20477;-71
2022/03/30 06:08:15;;;;;;;34.17;20.65;;;;;;;5.65;100.00;100518.31;5276518;28;20027;-72
2022/03/30 06:10:46;;;;;;;34.03;20.85;;;;;;;5.65;99.76;100522.66;5275571;28;20032;-70
2022/03/30 06:13:17;;;;;;;34.90;20.73;;;;;;;5.58;99.61;100525.69;5275412;28;20052;-70
2022/03/30 06:15:49;;;;;;;40.60;21.50;;;;;;;5.61;99.79;100530.66;5274860;28;20103;-70
2022/03/30 06:18:21;;;;;;;34.65;20.08;;;;;;;5.67;100.00;100531.19;5275133;28;20525;-70
2022/03/30 06:20:52;;;;;;;36.45;21.50;;;;;;;5.59;100.00;100531.69;5275266;28;20032;-70
2022/03/30 06:23:23;;;;;;;36.05;21.42;;;;;;;5.63;100.00;100521.94;5275928;28;20055;-70
2022/03/30 06:25:55;;;;;;;36.70;21.05;;;;;;;5.71;100.00;100524.81;5275428;28;20029;-70
2022/03/30 06:28:27;;;;;;;39.10;22.23;;;;;;;5.75;99.51;100528.88;5271985;28;20123;-72
2022/03/30 06:30:58;;;;;;;33.20;20.38;;;;;;;5.70;99.46;100523.16;5269884;28;20031;-72
2022/03/30 06:33:30;;;;;;;37.70;20.60;;;;;;;5.73;100.00;100533.34;5274208;28;20054;-71
2022/03/30 06:36:01;;;;;;;31.55;19.60;;;;;;;5.76;99.93;100533.97;5273834;28;20288;-71
2022/03/30 06:38:33;;;;;;;34.05;20.55;;;;;;;5.82;99.95;100522.31;5274142;28;20039;-70
2022/03/30 06:41:07;;;;;;;42.05;20.27;;;;;;;5.87;100.00;100522.81;5275936;28;20111;-70
2022/03/30 06:43:42;;;;;;;31.48;19.75;;;;;;;5.90;100.00;100513.97;5274938;28;20017;-71
2022/03/30 06:46:14;;;;;;;33.15;21.13;;;;;;;5.92;100.00;100518.16;5271629;28;20115;-70
2022/03/30 06:48:46;;;;;;;38.20;20.58;;;;;;;5.95;98.15;100523.16;5276128;28;20028;-71
2022/03/30 06:51:17;;;;;;;33.45;19.95;;;;;;;6.05;98.71;100521.53;5275013;28;20040;-71
2022/03/30 06:53:48;;;;;;;32.45;19.65;;;;;;;6.02;97.76;100526.13;5274500;28;20516;-71
2022/03/30 06:56:20;;;;;;;32.88;19.50;;;;;;;6.09;97.99;100522.97;5274329;28;20036;-71
2022/03/30 06:58:52;;;;;;;36.05;20.48;;;;;;;6.16;97.31;100519.97;5274780;28;20016;-71
2022/03/30 07:01:23;;;;;;;35.67;19.38;;;;;;;6.15;96.13;100511.31;5274825;28;20482;-71
2022/03/30 07:03:55;;;;;;;38.83;21.33;;;;;;;6.31;96.14;100509.28;5274175;28;20059;-71
2022/03/30 07:06:27;;;;;;;36.45;19.17;;;;;;;6.44;95.75;100506.63;5275435;28;20086;-72
2022/03/30 07:11:48;;;;;;;29.48;17.98;;;;;;;6.57;93.90;100515.19;5275576;28;20041;-69
2022/03/30 07:14:19;;;;;;;34.53;18.70;;;;;;;6.72;93.11;100521.03;5274433;28;20398;-71
2022/03/30 07:16:51;;;;;;;29.25;17.67;;;;;;;6.83;92.31;100518.47;5275145;28;20016;-71
2022/03/30 07:19:22;;;;;;;39.42;19.10;;;;;;;6.97;91.35;100511.38;5274371;28;20043;-71
2022/03/30 07:21:53;;;;;;;32.03;18.65;;;;;;;7.06;90.50;100511.53;5275286;28;20028;-71
2022/03/30 07:24:24;;;;;;;32.22;18.73;;;;;;;7.20;89.71;100513.13;5274104;28;20040;-70
2022/03/30 07:26:56;;;;;;;38.33;20.05;;;;;;;7.45;89.94;100516.44;5274495;28;20041;-71
2022/03/30 07:29:27;;;;;;;31.48;18.30;;;;;;;7.57;90.02;100511.09;5274032;28;20036;-71
2022/03/30 07:31:58;;;;;;;32.25;17.88;;;;;;;7.65;87.94;100520.09;5274965;28;20505;-71
2022/03/30 07:34:30;;;;;;;26.40;17.58;;;;;;;7.81;86.23;100520.59;5274179;28;20055;-72
2022/03/30 07:37:01;;;;;;;29.65;18.00;;;;;;;7.85;85.01;100516.78;5275381;28;20032;-71
2022/03/30 07:39:32;;;;;;;29.75;19.33;;;;;;;7.98;85.22;100519.25;5275027;28;20029;-71
2022/03/30 07:42:04;;;;;;;36.70;21.38;;;;;;;8.09;84.62;100515.78;5273287;28;20020;-70
2022/03/30 07:44:35;;;;;;;28.42;19.45;;;;;;;8.15;84.15;100503.09;5274155;28;20020;-71
2022/03/30 07:47:06;;;;;;;33.45;19.77;;;;;;;8.16;83.22;100512.56;5273065;28;20048;-73
2022/03/30 07:49:38;;;;;;;28.25;17.83;;;;;;;8.26;83.29;100513.50;5274307;28;20028;-71
2022/03/30 07:52:09;;;;;;;30.30;19.63;;;;;;;8.49;83.51;100509.06;5275216;28;20021;-70
2022/03/30 07:54:41;;;;;;;29.75;18.10;;;;;;;8.59;82.64;100506.50;5273337;28;20029;-71
2022/03/30 07:57:12;;;;;;;30.15;17.80;;;;;;;8.58;80.92;100501.44;5274589;28;20029;-71
2022/03/30 07:59:44;;;;;;;29.35;17.33;;;;;;;8.64;81.12;100501.75;5274850;28;20042;-72
2022/03/30 08:02:15;;;;;;;28.50;16.85;;;;;;;8.65;79.39;100508.63;5275018;28;20016;-71
2022/03/30 08:04:47;;;;;;;29.02;17.05;;;;;;;8.59;78.99;100513.50;5272943;28;20070;-72
2022/03/30 08:07:19;;;;;;;24.42;16.45;;;;;;;8.55;78.81;100507.72;5273926;28;20036;-71
2022/03/30 08:09:50;;;;;;;33.72;18.10;;;;;;;8.57;79.49;100510.22;5274379;28;20064;-72
2022/03/30 08:12:22;;;;;;;29.65;16.50;;;;;;;8.59;79.08;100513.50;5278457;28;20036;-71
2022/03/30 08:14:54;;;;;;;25.95;16.15;;;;;;;8.71;77.70;100515.13;5276853;28;20135;-71
2022/03/30 08:17:25;;;;;;;23.75;15.50;;;;;;;8.84;77.50;100512.34;5277028;28;20108;-71
2022/03/30 08:19:59;;;;;;;24.90;16.80;;;;;;;9.01;77.91;100511.75;5277424;28;20056;-71
2022/03/30 08:22:30;;;;;;;25.95;16.10;;;;;;;9.14;77.95;100522.84;5278701;28;20078;-71
2022/03/30 08:25:10;;;;;;;28.88;17.17;;;;;;;9.34;78.14;100515.94;5275574;28;20060;-71
2022/03/30 08:27:43;;;;;;;29.05;17.67;;;;;;;9.40;77.35;100525.06;5278060;28;20016;-71
2022/03/30 08:30:14;;;;;;;26.77;16.35;;;;;;;9.45;76.66;100507.19;5277047;28;20098;-73
2022/03/30 08:32:46;;;;;;;30.33;17.58;;;;;;;9.56;75.96;100514.09;5277898;28;20166;-71
2022/03/30 08:35:17;;;;;;;25.40;16.73;;;;;;;9.66;75.26;100514.97;5274227;28;20059;-71
2022/03/30 08:37:49;;;;;;;25.85;16.27;;;;;;;9.77;74.38;100512.25;5276157;28;20020;-73
2022/03/30 08:40:21;;;;;;;27.20;16.15;;;;;;;9.88;75.44;100504.28;5273905;28;20039;-71
2022/03/30 08:42:53;;;;;;;29.08;17.98;;;;;;;9.99;74.10;100501.56;5276540;28;20016;-72
2022/03/30 08:45:25;;;;;;;24.27;16.02;;;;;;;10.03;72.83;100501.28;5275357;28;20036;-73
2022/03/30 08:47:56;;;;;;;23.20;15.65;;;;;;;10.04;72.41;100502.94;5277770;28;20035;-71
2022/03/30 08:50:28;;;;;;;27.48;15.77;;;;;;;10.03;72.01;100496.88;5275731;28;20057;-71
2022/03/30 08:53:04;;;;;;;22.45;14.77;;;;;;;10.19;72.07;100497.22;5276193;28;20107;-72
2022/03/30 08:55:35;;;;;;;25.80;14.85;;;;;;;10.13;71.13;100496.91;5276394;28;20056;-71
2022/03/30 08:58:06;;;;;;;29.70;14.80;;;;;;;10.19;71.22;100493.72;5275542;28;20048;-71
2022/03/30 09:00:38;;;;;;;23.00;14.77;;;;;;;10.18;70.67;100497.31;5276122;28;20047;-71
2022/03/30 09:03:13;;;;;;;24.23;14.88;;;;;;;10.39;69.78;100497.25;5276304;28;20025;-72
2022/03/30 09:05:45;;;;;;;25.83;14.00;;;;;;;10.42;71.07;100495.19;5276153;28;20020;-71
2022/03/30 09:08:20;;;;;;;24.02;13.98;;;;;;;10.66;70.51;100493.94;5275466;28;20078;-71
2022/03/30 09:10:54;;;;;;;24.63;14.35;;;;;;;10.60;68.83;100499.72;5276202;28;20653;-72
2022/03/30 09:13:25;;;;;;;20.98;13.48;;;;;;;10.60;69.23;100491.84;5274404;28;20262;-72
2022/03/30 09:15:56;;;;;;;26.02;15.27;;;;;;;10.77;70.31;100491.16;5289222;22;20044;-70
2022/03/30 09:18:28;;;;;;;20.20;14.10;;;;;;;10.88;69.42;100485.78;5280931;28;20488;-70
2022/03/30 09:20:59;;;;;;;25.90;15.00;;;;;;;10.93;68.40;100478.28;5284315;28;20032;-70
2022/03/30 09:23:32;;;;;;;24.27;13.88;;;;;;;11.02;68.25;100479.22;5284592;28;20141;-71
2022/03/30 09:26:04;;;;;;;19.63;13.50;;;;;;;11.10;67.88;100468.88;5286397;28;20040;-71
2022/03/30 09:28:35;;;;;;;23.73;14.15;;;;;;;11.04;67.70;100479.94;5286628;28;20024;-70
2022/03/30 09:31:07;;;;;;;23.27;14.18;;;;;;;11.20;67.16;100472.28;5285112;28;20035;-69
2022/03/30 09:33:38;;;;;;;25.00;14.48;;;;;;;11.19;67.30;100475.06;5280300;28;20107;-70
2022/03/30 09:36:26;;;;;;;24.65;13.60;;;;;;;11.29;67.75;100460.13;5283210;28;20396;-70
2022/03/30 09:38:58;;;;;;;19.55;13.75;;;;;;;11.21;66.75;100452.13;5282935;28;20088;-70
2022/03/30 09:41:52;;;;;;;20.90;14.13;;;;;;;11.69;66.66;100461.59;5281872;28;20021;-70
2022/03/30 09:44:23;;;;;;;;;;;;;;;12.02;65.13;100461.97;5286686;28;20048;-71
2022/03/30 09:46:55;;;;;;;21.83;13.98;;;;;;;11.61;65.05;100457.06;5285766;28;19958;-71
2022/03/30 09:49:38;;;;;;;25.92;14.93;;;;;;;11.53;65.94;100458.78;5287165;28;20038;-70
2022/03/30 09:52:10;;;;;;;21.13;14.02;;;;;;;11.41;64.68;100452.91;5284708;28;20041;-70
2022/03/30 09:54:47;;;;;;;21.50;13.85;;;;;;;11.58;65.64;100448.66;5286507;28;20634;-70
2022/03/30 09:57:28;;;;;;;22.98;14.10;;;;;;;11.59;65.07;100450.31;5287917;28;20027;-71
2022/03/30 10:00:15;;;;;;;22.40;14.23;;;;;;;11.82;65.64;100448.94;5285817;28;20475;-71
2022/03/30 10:02:48;;;;;;;22.83;14.07;;;;;;;11.74;63.98;100448.84;5274383;28;20024;-70
2022/03/30 10:05:22;;;;;;;22.13;14.02;;;;;;;11.93;63.57;100443.53;5285185;28;20024;-70
2022/03/30 10:07:55;;;;;;;21.88;14.25;;;;;;;12.05;63.43;100451.19;5286986;28;20028;-70
2022/03/30 10:10:26;;;;;;;22.45;15.70;;;;;;;12.02;63.56;100438.34;5287605;28;20031;-70
2022/03/30 10:12:57;;;;;;;21.95;14.48;;;;;;;12.14;63.14;100437.16;5284091;28;20045;-70
2022/03/30 10:15:29;;;;;;;19.80;14.48;;;;;;;12.25;61.33;100436.09;5284582;28;20051;-70
2022/03/30 10:18:01;;;;;;;21.10;14.15;;;;;;;12.03;62.60;100426.88;5285860;28;20028;-70
2022/03/30 10:20:32;;;;;;;21.17;13.82;;;;;;;12.01;61.42;100432.28;5286704;28;20028;-70
2022/03/30 10:23:17;;;;;;;21.15;14.70;;;;;;;12.23;62.60;100423.09;5285005;28;20028;-70
2022/03/30 10:26:07;;;;;;;23.08;14.02;;;;;;;12.52;61.68;100437.78;5282489;28;20031;-71
2022/03/30 10:28:43;;;;;;;24.40;14.70;;;;;;;12.60;60.44;100424.72;5284808;28;20024;-71
2022/03/30 10:31:20;;;;;;;24.83;15.07;;;;;;;12.68;60.83;100424.75;5287875;28;20040;-70
2022/03/30 10:33:52;;;;;;;23.73;15.23;;;;;;;12.52;60.03;100420.22;5282592;28;20024;-70
2022/03/30 10:36:32;;;;;;;24.45;14.10;;;;;;;12.69;60.12;100425.59;5274122;28;20051;-70
2022/03/30 10:39:16;;;;;;;19.95;13.05;;;;;;;12.90;59.44;100423.44;5276350;28;20076;-70
2022/03/30 10:41:51;;;;;;;21.67;14.23;;;;;;;12.88;59.36;100414.88;5281852;28;20493;-71
2022/03/30 10:44:38;;;;;;;24.45;14.48;;;;;;;12.93;58.90;100409.97;5284669;28;20023;-71
2022/03/30 10:47:13;;;;;;;20.67;13.90;;;;;;;12.87;58.12;100406.16;5274950;28;20051;-70
2022/03/30 10:49:46;;;;;;;22.83;14.68;;;;;;;12.86;57.85;100395.81;5286336;28;20303;-70
2022/03/30 10:52:38;;;;;;;20.20;13.82;;;;;;;13.10;58.10;100395.91;5282447;28;20025;-70
2022/03/30 10:55:12;;;;;;;24.27;14.27;;;;;;;13.06;57.88;100391.94;5284623;28;20032;-70
2022/03/30 10:57:49;;;;;;;19.80;14.07;;;;;;;13.13;57.33;100384.25;5281299;28;20248;-70
2022/03/30 11:00:24;;;;;;;20.45;14.20;;;;;;;13.35;58.36;100383.72;5284348;28;20028;-70
2022/03/30 11:03:20;;;;;;;19.73;13.63;;;;;;;13.66;57.62;100385.78;5286618;28;20084;-71
2022/03/30 11:06:06;;;;;;;22.05;13.45;;;;;;;13.65;56.33;100378.06;5279954;28;20028;-70
2022/03/30 11:08:40;;;;;;;17.42;12.52;;;;;;;13.52;57.07;100376.69;5282669;28;20032;-70
2022/03/30 11:11:39;;;;;;;17.50;13.35;;;;;;;14.05;56.66;100372.00;5280379;28;20040;-71
2022/03/30 11:14:23;;;;;;;19.77;12.98;;;;;;;14.10;55.24;100367.91;5276958;28;20040;-70
2022/03/30 11:17:00;;;;;;;18.65;13.85;;;;;;;13.77;55.46;100359.16;5285490;28;20056;-72
2022/03/30 11:19:47;;;;;;;19.45;13.07;;;;;;;14.14;55.95;100357.03;5279355;28;20024;-71
2022/03/30 11:22:33;;;;;;;22.83;13.93;;;;;;;14.02;56.00;100351.28;5283582;28;20453;-71
2022/03/30 11:25:19;;;;;;;19.00;13.68;;;;;;;14.19;55.33;100347.63;5277951;28;20028;-72
2022/03/30 11:27:56;;;;;;;22.45;13.80;;;;;;;14.28;54.34;100343.19;5283007;28;20081;-71
2022/03/30 11:30:29;;;;;;;20.90;13.85;;;;;;;14.32;54.42;100339.25;5281498;28;20276;-72
2022/03/30 11:33:19;;;;;;;20.25;13.85;;;;;;;14.48;54.08;100339.22;5278903;28;20392;-71
2022/03/30 11:35:52;;;;;;;19.88;14.52;;;;;;;14.16;54.43;100318.97;5279010;28;20032;-71
2022/03/30 11:38:27;;;;;;;18.08;13.32;;;;;;;14.26;53.85;100332.81;5277810;28;20023;-71
2022/03/30 11:41:05;;;;;;;21.42;12.88;;;;;;;14.06;53.24;100328.91;5279056;28;20031;-71
2022/03/30 11:46:32;;;;;;;17.92;12.68;;;;;;;14.19;52.92;100328.38;5286408;28;20032;-71
2022/03/30 11:49:05;;;;;;;18.45;13.18;;;;;;;14.12;52.11;100330.84;5286582;28;20034;-71
2022/03/30 11:51:36;;;;;;;;;;;;;;;14.78;52.33;100334.22;5287419;28;20409;-71